Time;durP1;ratioP1;P1;durP2;ratioP2;P2;SDS_P1;SDS_P2;PMS_P1;PMS_P2;Temp;Humidity;BMP_temperature;BMP_pressure;BME280_temperature;BME280_humidity;BME280_pressure;Samples;Min_cycle;Max_cycle;Signal;HPM_P1;HPM_P2
2022/11/04 00:00:08;;;;;;;0.53;0.53;;;;;;;13.36;70.45;99711.59;5052114;28;20220;-70
2022/11/04 00:02:34;;;;;;;1.03;1.00;;;;;;;13.27;70.12;99706.78;5051717;28;20216;-70
2022/11/04 00:05:02;;;;;;;1.00;1.00;;;;;;;13.18;71.03;99711.41;5052086;28;20196;-70
2022/11/04 00:10:14;;;;;;;0.60;0.60;;;;;;;12.99;70.84;99704.28;5050529;28;20795;-70
2022/11/04 00:12:40;;;;;;;0.70;0.70;;;;;;;12.91;70.75;99706.31;5051141;28;20193;-70
2022/11/04 00:17:48;;;;;;;0.73;0.73;;;;;;;12.80;71.75;99704.97;5051399;28;20567;-70
2022/11/04 00:28:44;;;;;;;0.40;0.40;;;;;;;12.63;73.69;99706.41;5050850;28;20286;-69
2022/11/04 00:33:57;;;;;;;0.60;0.60;;;;;;;12.52;74.29;99700.78;5051158;28;20664;-69
2022/11/04 00:36:25;;;;;;;0.67;0.67;;;;;;;12.43;74.61;99701.09;5051367;28;20203;-69
2022/11/04 00:38:52;;;;;;;0.50;0.50;;;;;;;12.47;74.57;99707.78;5051361;28;20589;-70
2022/11/04 00:41:27;;;;;;;0.60;0.60;;;;;;;12.44;74.47;99696.81;5050744;28;20219;-70
2022/11/04 00:43:54;;;;;;;0.60;0.60;;;;;;;12.49;74.93;99711.19;5050082;28;20660;-70
2022/11/04 00:46:21;;;;;;;0.50;0.50;;;;;;;12.43;75.41;99708.81;5050557;28;20205;-70
2022/11/04 00:48:48;;;;;;;0.50;0.50;;;;;;;12.40;75.34;99706.34;5050423;28;20204;-70
2022/11/04 00:51:15;;;;;;;0.50;0.50;;;;;;;12.42;75.75;99706.28;5050653;28;20204;-70
2022/11/04 00:53:42;;;;;;;0.40;0.40;;;;;;;12.42;75.73;99704.53;5050397;28;20201;-70
2022/11/04 00:56:09;;;;;;;0.67;0.67;;;;;;;12.37;75.71;99701.31;5050942;28;20203;-70
2022/11/04 00:58:37;;;;;;;0.50;0.50;;;;;;;12.30;76.89;99689.53;5050908;28;20667;-70
2022/11/04 01:01:09;;;;;;;0.60;0.60;;;;;;;12.21;76.77;99684.69;5050493;28;20680;-70
2022/11/04 01:03:35;;;;;;;0.53;0.53;;;;;;;12.25;77.13;99696.53;5050626;28;20204;-70
2022/11/04 01:06:02;;;;;;;0.63;0.63;;;;;;;12.19;77.31;99691.59;5050451;28;20210;-70
2022/11/04 01:08:29;;;;;;;0.50;0.50;;;;;;;12.24;76.65;99694.88;5050578;28;20205;-70
2022/11/04 01:10:56;;;;;;;1.27;1.27;;;;;;;12.27;76.69;99705.06;5050679;28;20219;-70
2022/11/04 01:13:23;;;;;;;0.80;0.80;;;;;;;12.19;76.64;99694.16;5049995;28;20196;-70
2022/11/04 01:15:51;;;;;;;3.40;0.77;;;;;;;12.20;76.67;99701.00;5050033;28;20193;-70
2022/11/04 01:18:18;;;;;;;0.50;0.50;;;;;;;12.17;76.72;99692.53;5050174;28;20617;-70
2022/11/04 01:20:45;;;;;;;0.40;0.40;;;;;;;12.11;77.34;99691.00;5050524;28;20201;-70
2022/11/04 01:23:11;;;;;;;0.70;0.70;;;;;;;12.06;77.74;99687.72;5050470;28;20212;-70
2022/11/04 01:25:39;;;;;;;0.60;0.60;;;;;;;12.05;77.63;99697.16;5050339;28;20196;-70
2022/11/04 01:28:07;;;;;;;0.67;0.67;;;;;;;12.08;77.07;99691.13;5050784;28;20197;-70
2022/11/04 01:30:33;;;;;;;0.63;0.63;;;;;;;12.10;76.66;99702.16;5049243;28;20197;-70
2022/11/04 01:33:02;;;;;;;0.60;0.60;;;;;;;12.13;76.81;99696.94;5050285;28;20204;-70
2022/11/04 01:35:28;;;;;;;0.60;0.60;;;;;;;12.13;76.62;99696.94;5050242;28;20212;-70
2022/11/04 01:37:55;;;;;;;0.80;0.80;;;;;;;12.13;76.51;99691.78;5050284;28;20197;-70
2022/11/04 01:40:22;;;;;;;0.70;0.70;;;;;;;12.10;76.50;99685.03;5050483;28;20208;-70
2022/11/04 01:42:49;;;;;;;0.47;0.47;;;;;;;12.06;76.38;99690.31;5049483;28;20680;-70
2022/11/04 01:45:19;;;;;;;0.50;0.50;;;;;;;12.08;76.06;99683.41;5049743;28;20203;-70
2022/11/04 01:47:50;;;;;;;0.80;0.80;;;;;;;12.07;75.90;99682.56;5049424;28;20212;-70
2022/11/04 01:50:23;;;;;;;0.60;0.60;;;;;;;12.01;76.06;99697.31;5051618;28;20237;-70
2022/11/04 01:52:53;;;;;;;4.47;1.10;;;;;;;11.90;76.43;99679.66;5053415;28;20196;-70
2022/11/04 01:55:23;;;;;;;0.80;0.80;;;;;;;11.87;76.13;99681.47;5053193;28;20216;-70
2022/11/04 01:57:55;;;;;;;0.60;0.60;;;;;;;11.78;76.10;99668.94;5054231;28;20207;-70
2022/11/04 02:00:22;;;;;;;0.70;0.70;;;;;;;11.81;76.12;99671.41;5054208;28;20219;-69
2022/11/04 02:02:54;;;;;;;0.70;0.70;;;;;;;11.79;76.19;99675.75;5053839;28;20219;-70
2022/11/04 02:05:23;;;;;;;1.77;1.67;;;;;;;11.75;76.47;99663.88;5052713;28;20197;-70
2022/11/04 02:07:52;;;;;;;0.67;0.67;;;;;;;11.77;75.97;99665.50;5053859;28;20201;-70
2022/11/04 02:10:23;;;;;;;0.63;0.63;;;;;;;11.73;75.94;99652.84;5053975;28;20200;-70
2022/11/04 02:12:49;;;;;;;0.50;0.50;;;;;;;11.73;75.95;99655.41;5053525;28;20223;-70
2022/11/04 02:15:20;;;;;;;0.60;0.60;;;;;;;11.75;76.16;99648.47;5054173;28;20221;-70
2022/11/04 02:18:06;;;;;;;0.50;0.50;;;;;;;11.73;76.35;99645.13;5054030;28;20211;-70
2022/11/04 02:20:57;;;;;;;0.50;0.50;;;;;;;11.71;76.48;99647.72;5050720;28;20201;-70
2022/11/04 02:23:49;;;;;;;0.50;0.50;;;;;;;11.48;76.63;99629.56;5050738;28;20236;-70
2022/11/04 02:26:48;;;;;;;0.60;0.60;;;;;;;11.58;76.65;99642.09;5053040;28;20196;-70
2022/11/04 02:29:25;;;;;;;0.60;0.60;;;;;;;11.50;76.94;99644.03;5029075;28;20203;-70
2022/11/04 02:31:59;;;;;;;0.50;0.50;;;;;;;11.53;76.47;99643.94;5053482;28;20606;-70
2022/11/04 02:34:34;;;;;;;0.50;0.50;;;;;;;11.52;76.34;99647.44;5053540;28;20192;-70
2022/11/04 02:37:11;;;;;;;0.60;0.60;;;;;;;11.54;76.38;99644.78;5053288;28;20581;-69
2022/11/04 02:39:48;;;;;;;0.50;0.50;;;;;;;11.53;76.30;99643.94;5049788;28;20227;-70
2022/11/04 02:42:25;;;;;;;0.60;0.60;;;;;;;11.52;75.80;99647.44;5051973;28;22302;-70
2022/11/04 02:45:02;;;;;;;0.80;0.80;;;;;;;11.38;75.27;99628.16;5051489;28;20208;-70
2022/11/04 02:47:32;;;;;;;0.60;0.60;;;;;;;11.39;75.20;99643.53;5053659;28;20213;-70
2022/11/04 02:50:06;;;;;;;0.53;0.53;;;;;;;11.39;75.51;99640.97;5053370;28;20197;-70
2022/11/04 02:52:40;;;;;;;0.50;0.50;;;;;;;11.33;76.16;99646.28;5053041;28;20196;-70
2022/11/04 02:55:11;;;;;;;0.90;0.90;;;;;;;11.29;76.06;99654.97;5052960;28;20207;-70
2022/11/04 02:57:42;;;;;;;0.50;0.50;;;;;;;11.21;76.41;99651.75;5053318;28;20201;-70
2022/11/04 03:00:13;;;;;;;0.50;0.50;;;;;;;11.11;76.42;99649.50;5052828;28;20205;-70
2022/11/04 03:02:43;;;;;;;0.57;0.57;;;;;;;11.13;76.20;99643.44;5051850;28;20240;-70
2022/11/04 03:05:15;;;;;;;0.50;0.50;;;;;;;11.15;76.10;99641.66;5052629;28;20212;-70
2022/11/04 03:07:46;;;;;;;0.50;0.50;;;;;;;11.10;76.11;99640.97;5052941;28;20254;-70
2022/11/04 03:10:16;;;;;;;0.60;0.60;;;;;;;11.09;75.87;99641.84;5052667;28;20203;-70
2022/11/04 03:12:48;;;;;;;0.60;0.60;;;;;;;11.06;75.71;99647.06;5052984;28;20200;-70
2022/11/04 03:15:22;;;;;;;0.53;0.53;;;;;;;10.99;76.02;99655.81;5052382;28;20232;-70
2022/11/04 03:17:55;;;;;;;0.50;0.50;;;;;;;10.89;76.26;99654.38;5051897;28;20626;-70
2022/11/04 03:20:26;;;;;;;0.70;0.70;;;;;;;10.81;76.76;99651.19;5052754;28;20189;-70
2022/11/04 03:22:58;;;;;;;0.60;0.60;;;;;;;10.81;77.31;99651.19;5051822;28;20213;-70
2022/11/04 03:25:29;;;;;;;0.90;0.90;;;;;;;10.74;77.92;99644.53;5052514;28;20288;-70
2022/11/04 03:28:04;;;;;;;0.60;0.60;;;;;;;10.70;77.98;99648.06;5051941;28;20201;-70
2022/11/04 03:30:39;;;;;;;0.60;0.60;;;;;;;10.66;78.72;99642.22;5052273;28;20232;-70
2022/11/04 03:33:14;;;;;;;0.80;0.80;;;;;;;10.62;79.51;99655.13;5052451;28;20196;-69
2022/11/04 03:35:41;;;;;;;0.60;0.60;;;;;;;10.52;80.01;99647.69;5052592;28;20202;-70
2022/11/04 03:38:08;;;;;;;0.60;0.60;;;;;;;10.50;79.92;99657.13;5049720;28;20219;-70
2022/11/04 03:40:35;;;;;;;0.60;0.60;;;;;;;10.50;79.71;99652.00;5051279;28;20212;-70
2022/11/04 03:43:08;;;;;;;0.60;0.60;;;;;;;10.53;79.14;99641.66;5050294;28;20688;-70
2022/11/04 03:45:37;;;;;;;0.60;0.60;;;;;;;10.61;79.26;99648.31;5051455;28;20204;-70
2022/11/04 03:48:05;;;;;;;0.63;0.63;;;;;;;10.50;79.17;99626.38;5051094;28;20197;-70
2022/11/04 03:50:34;;;;;;;0.50;0.50;;;;;;;10.65;79.61;99637.09;5052259;28;20200;-70
2022/11/04 03:53:01;;;;;;;0.60;0.60;;;;;;;10.61;79.37;99632.94;5051345;28;20193;-70
2022/11/04 03:55:34;;;;;;;0.80;0.80;;;;;;;10.68;80.13;99634.47;5052010;28;20734;-70
2022/11/04 03:58:04;;;;;;;0.60;0.60;;;;;;;10.69;80.05;99637.00;5052035;28;20203;-70
2022/11/04 04:00:40;;;;;;;0.57;0.57;;;;;;;10.69;80.59;99625.91;5049908;28;20236;-70
2022/11/04 04:03:11;;;;;;;0.40;0.40;;;;;;;10.74;80.60;99635.13;5050464;28;20227;-70
2022/11/04 04:05:47;;;;;;;0.60;0.60;;;;;;;10.73;80.90;99637.72;5051478;28;20213;-70
2022/11/04 04:08:25;;;;;;;0.57;0.57;;;;;;;10.67;81.39;99620.78;5051943;28;20204;-70
2022/11/04 04:11:04;;;;;;;0.50;0.50;;;;;;;10.80;81.76;99637.53;5051659;28;20664;-70
2022/11/04 04:13:40;;;;;;;0.60;0.60;;;;;;;10.78;81.96;99641.03;5049081;28;20208;-70
2022/11/04 04:16:13;;;;;;;0.50;0.50;;;;;;;10.88;82.26;99637.34;5051666;28;20203;-70
2022/11/04 04:18:44;;;;;;;0.67;0.67;;;;;;;10.88;82.58;99634.78;5050182;28;20227;-69
2022/11/04 04:21:17;;;;;;;0.57;0.57;;;;;;;10.83;81.62;99639.16;5049741;28;20196;-70
2022/11/04 04:29:20;;;;;;;0.60;0.60;;;;;;;10.79;82.10;99635.03;5049803;28;20534;-69
2022/11/04 04:31:50;;;;;;;0.60;0.60;;;;;;;10.75;82.53;99630.84;5050628;28;20204;-67
2022/11/04 04:34:18;;;;;;;1.90;1.00;;;;;;;10.75;82.61;99636.81;5051231;28;20213;-68
2022/11/04 04:36:49;;;;;;;0.50;0.50;;;;;;;10.76;82.95;99637.69;5051173;28;20546;-68
2022/11/04 04:45:00;;;;;;;0.50;0.50;;;;;;;10.76;83.13;99642.81;5049160;28;20208;-68
2022/11/04 04:47:33;;;;;;;0.70;0.70;;;;;;;10.71;83.74;99645.47;5046259;28;20255;-68
2022/11/04 04:50:01;;;;;;;1.00;1.00;;;;;;;10.73;84.25;99651.41;5042938;28;20211;-68
2022/11/04 04:52:31;;;;;;;0.50;0.50;;;;;;;10.69;84.62;99643.84;5047526;28;20204;-68
2022/11/04 04:54:58;;;;;;;0.60;0.60;;;;;;;10.78;84.51;99651.28;5044622;28;20228;-68
2022/11/04 04:57:25;;;;;;;0.70;0.70;;;;;;;10.82;84.79;99642.63;5045808;28;20196;-68
2022/11/04 04:59:52;;;;;;;0.70;0.70;;;;;;;10.83;84.94;99644.28;5050333;28;20291;-68
2022/11/04 05:02:19;;;;;;;0.57;0.57;;;;;;;10.83;84.41;99637.44;5040573;28;20235;-68
2022/11/04 05:04:47;;;;;;;0.60;0.60;;;;;;;10.94;84.95;99647.41;5049944;28;20215;-68
2022/11/04 05:07:14;;;;;;;0.70;0.70;;;;;;;10.91;85.22;99637.25;5049288;28;20288;-68
2022/11/04 05:09:40;;;;;;;1.00;1.00;;;;;;;10.90;85.13;99640.69;5049680;28;20204;-69
2022/11/04 05:12:08;;;;;;;0.63;0.63;;;;;;;10.95;85.17;99639.66;5049835;28;20207;-68
2022/11/04 05:14:35;;;;;;;0.50;0.50;;;;;;;11.00;85.31;99642.97;5049702;28;20236;-68
2022/11/04 05:17:02;;;;;;;0.60;0.60;;;;;;;11.02;84.99;99643.75;5048961;28;20338;-68
2022/11/04 05:19:29;;;;;;;0.57;0.57;;;;;;;11.06;84.95;99647.91;5049678;28;20201;-68
2022/11/04 05:21:58;;;;;;;0.53;0.53;;;;;;;11.06;86.01;99631.69;5050356;28;20209;-68
2022/11/04 05:24:25;;;;;;;0.50;0.50;;;;;;;11.12;85.96;99653.75;5049084;28;20216;-68
2022/11/04 05:26:52;;;;;;;0.50;0.50;;;;;;;11.06;85.02;99637.66;5049399;28;20696;-68
2022/11/04 05:29:18;;;;;;;0.60;0.60;;;;;;;11.20;85.09;99651.81;5049493;28;20197;-68
2022/11/04 05:31:48;;;;;;;0.80;0.80;;;;;;;11.24;85.12;99655.97;5048260;28;20688;-68
2022/11/04 05:34:15;;;;;;;0.60;0.60;;;;;;;11.30;84.93;99656.66;5048606;28;20212;-68
2022/11/04 05:36:41;;;;;;;2.37;2.10;;;;;;;11.38;84.53;99666.66;5048874;28;20200;-68
2022/11/04 05:39:12;;;;;;;0.40;0.40;;;;;;;11.42;84.71;99671.69;5049488;28;20573;-68
2022/11/04 05:41:38;;;;;;;0.40;0.40;;;;;;;11.40;84.12;99655.50;5049383;28;20209;-68
2022/11/04 05:44:08;;;;;;;0.77;0.77;;;;;;;11.55;83.89;99674.72;5050087;28;20216;-68
2022/11/04 05:46:34;;;;;;;0.67;0.67;;;;;;;11.62;83.92;99672.81;5045421;28;20216;-68
2022/11/04 05:49:01;;;;;;;1.17;1.17;;;;;;;11.66;83.87;99680.41;5048320;28;20209;-68
2022/11/04 05:51:29;;;;;;;0.60;0.60;;;;;;;11.73;83.71;99678.50;5049098;28;20224;-68
2022/11/04 05:53:56;;;;;;;1.23;1.23;;;;;;;11.68;83.95;99673.47;5050272;28;20216;-68
2022/11/04 05:56:24;;;;;;;0.70;0.70;;;;;;;11.77;83.75;99682.66;5050214;28;20223;-69
2022/11/04 05:58:51;;;;;;;0.50;0.50;;;;;;;11.81;83.67;99679.97;5049628;28;20211;-68
2022/11/04 06:01:31;;;;;;;0.40;0.40;;;;;;;11.86;83.88;99685.78;5050536;28;20197;-68
2022/11/04 06:03:59;;;;;;;0.70;0.70;;;;;;;11.86;84.07;99688.34;5049405;28;20219;-68
2022/11/04 06:06:27;;;;;;;0.70;0.70;;;;;;;11.87;84.93;99691.75;5047592;28;20283;-68
2022/11/04 06:08:55;;;;;;;0.67;0.67;;;;;;;11.88;84.50;99696.03;5049700;28;20200;-68
2022/11/04 06:11:24;;;;;;;0.50;0.50;;;;;;;11.91;84.78;99691.63;5048445;28;20205;-68
2022/11/04 06:13:51;;;;;;;0.90;0.90;;;;;;;11.99;85.10;99706.78;5043222;28;20282;-69
2022/11/04 06:16:18;;;;;;;0.70;0.70;;;;;;;12.02;84.98;99704.13;5048779;28;20580;-69
2022/11/04 06:18:45;;;;;;;0.50;0.50;;;;;;;12.03;84.60;99710.94;5048970;28;20208;-68
2022/11/04 06:21:24;;;;;;;0.90;0.90;;;;;;;12.04;85.64;99705.78;5048176;28;20591;-68
2022/11/04 06:23:51;;;;;;;0.60;0.60;;;;;;;12.06;85.73;99703.16;5040416;28;20313;-68
2022/11/04 06:26:18;;;;;;;0.67;0.67;;;;;;;12.08;85.07;99703.97;5046405;28;20242;-69
2022/11/04 06:28:46;;;;;;;0.83;0.83;;;;;;;12.16;85.84;99701.97;5045347;28;20262;-69
2022/11/04 06:31:14;;;;;;;0.87;0.87;;;;;;;12.15;86.06;99700.28;5046780;28;20201;-69
2022/11/04 06:33:42;;;;;;;0.90;0.90;;;;;;;12.20;85.93;99692.44;5049308;28;20200;-69
2022/11/04 06:36:12;;;;;;;0.60;0.60;;;;;;;12.24;85.01;99704.31;5048648;28;20665;-67
2022/11/04 06:38:39;;;;;;;1.10;1.10;;;;;;;12.15;83.43;99690.00;5052089;28;20207;-67
2022/11/04 06:41:07;;;;;;;0.70;0.70;;;;;;;12.32;84.77;99708.31;5046687;28;22205;-68
2022/11/04 06:43:34;;;;;;;0.57;0.57;;;;;;;12.37;84.15;99706.44;5049416;28;20221;-68
2022/11/04 06:46:03;;;;;;;0.80;0.80;;;;;;;12.42;83.62;99713.97;5051080;28;20223;-67
2022/11/04 06:48:31;;;;;;;0.50;0.50;;;;;;;12.46;84.23;99707.88;5051507;28;20213;-68
2022/11/04 06:50:58;;;;;;;0.80;0.80;;;;;;;12.52;84.63;99718.78;5051015;28;20787;-68
2022/11/04 06:53:25;;;;;;;0.60;0.60;;;;;;;12.53;84.51;99717.91;5051566;28;20204;-67
2022/11/04 06:55:53;;;;;;;0.60;0.60;;;;;;;12.58;84.38;99721.16;5050809;28;20270;-67
2022/11/04 06:58:20;;;;;;;0.53;0.53;;;;;;;12.59;83.98;99711.72;5050648;28;20221;-67
2022/11/04 07:00:51;;;;;;;0.40;0.40;;;;;;;12.69;84.08;99717.38;5052043;28;21271;-68
2022/11/04 07:03:19;;;;;;;0.83;0.83;;;;;;;12.71;84.20;99720.72;5051382;28;20220;-68
2022/11/04 07:05:46;;;;;;;0.70;0.70;;;;;;;12.69;84.00;99712.25;5051293;28;20197;-68
2022/11/04 07:08:13;;;;;;;0.60;0.60;;;;;;;12.75;83.48;99715.44;5051288;28;20262;-68
2022/11/04 07:10:40;;;;;;;1.20;1.20;;;;;;;12.78;84.14;99715.34;5047624;28;20201;-67
2022/11/04 07:13:07;;;;;;;0.50;0.50;;;;;;;12.77;84.78;99715.38;5048354;28;20189;-67
2022/11/04 07:15:34;;;;;;;0.57;0.57;;;;;;;12.78;82.93;99711.94;5048618;28;20235;-68
2022/11/04 07:18:01;;;;;;;1.23;1.23;;;;;;;12.83;83.52;99704.88;5050716;28;20266;-68
2022/11/04 07:20:29;;;;;;;0.60;0.60;;;;;;;12.89;83.45;99705.50;5051774;28;20638;-68
2022/11/04 07:22:56;;;;;;;1.70;1.70;;;;;;;12.93;83.69;99701.09;5052037;28;20672;-68
2022/11/04 07:25:23;;;;;;;0.50;0.50;;;;;;;12.97;83.11;99693.22;5051020;28;20209;-68
2022/11/04 07:27:50;;;;;;;0.70;0.70;;;;;;;13.00;83.12;99703.41;5052516;28;20201;-68
2022/11/04 07:30:19;;;;;;;0.50;0.50;;;;;;;13.01;83.68;99688.81;5051779;28;20212;-67
2022/11/04 07:32:45;;;;;;;0.80;0.80;;;;;;;13.06;83.56;99686.91;5052485;28;20204;-67
2022/11/04 07:35:12;;;;;;;0.70;0.70;;;;;;;13.08;82.98;99678.28;5052236;28;20197;-68
2022/11/04 07:37:41;;;;;;;0.70;0.70;;;;;;;13.12;83.38;99679.00;5053171;28;20193;-68
2022/11/04 07:40:10;;;;;;;1.00;1.00;;;;;;;13.09;83.20;99677.38;5052333;28;20204;-67
2022/11/04 07:42:36;;;;;;;0.70;0.70;;;;;;;13.14;82.49;99674.66;5052004;28;20703;-67
2022/11/04 07:45:04;;;;;;;0.60;0.60;;;;;;;13.17;82.73;99673.69;5051640;28;20229;-68
2022/11/04 07:47:31;;;;;;;0.50;0.50;;;;;;;13.21;82.51;99668.38;5051083;28;20204;-68
2022/11/04 07:49:58;;;;;;;0.53;0.53;;;;;;;13.23;83.45;99664.00;5052200;28;20220;-68
2022/11/04 07:52:25;;;;;;;0.93;0.93;;;;;;;13.28;84.36;99664.66;5052115;28;20200;-68
2022/11/04 07:54:53;;;;;;;0.63;0.63;;;;;;;13.34;83.38;99655.91;5051829;28;20202;-69
2022/11/04 07:57:20;;;;;;;0.63;0.63;;;;;;;13.35;84.01;99652.41;5051588;28;20210;-68
2022/11/04 07:59:46;;;;;;;0.70;0.70;;;;;;;13.39;83.57;99644.53;5050538;28;20208;-64
2022/11/04 08:02:13;;;;;;;0.57;0.57;;;;;;;13.44;84.05;99647.75;5051650;28;20201;-66
2022/11/04 08:04:40;;;;;;;0.50;0.50;;;;;;;13.50;84.28;99641.53;5050579;28;20231;-65
2022/11/04 08:07:08;;;;;;;2.57;1.67;;;;;;;13.55;84.94;99637.03;5051379;28;20205;-66
2022/11/04 08:09:36;;;;;;;0.50;0.50;;;;;;;13.56;85.96;99637.00;5048679;28;20216;-66
2022/11/04 08:12:05;;;;;;;0.60;0.60;;;;;;;13.59;86.35;99636.88;5050561;28;20287;-66
2022/11/04 08:14:32;;;;;;;0.50;0.50;;;;;;;13.64;86.70;99639.25;5050980;28;20786;-66
2022/11/04 08:16:58;;;;;;;0.50;0.50;;;;;;;13.74;86.40;99629.44;5051636;28;20209;-66
2022/11/04 08:19:26;;;;;;;0.67;0.67;;;;;;;13.81;86.23;99630.88;5051805;28;20235;-66
2022/11/04 08:21:53;;;;;;;0.40;0.40;;;;;;;13.88;86.80;99627.16;5051261;28;20669;-65
2022/11/04 08:24:19;;;;;;;1.10;1.10;;;;;;;13.96;86.99;99625.09;5051135;28;20271;-66
2022/11/04 08:26:46;;;;;;;0.50;0.50;;;;;;;13.98;86.81;99618.16;5050846;28;20205;-66
2022/11/04 08:29:15;;;;;;;1.03;1.03;;;;;;;14.12;85.79;99621.00;5050938;28;20209;-66
2022/11/04 08:31:42;;;;;;;2.43;0.90;;;;;;;14.15;86.18;99615.75;5050971;28;20227;-66
2022/11/04 08:34:09;;;;;;;1.13;1.13;;;;;;;14.26;85.88;99608.38;5051020;28;20208;-67
2022/11/04 08:36:39;;;;;;;4.63;1.57;;;;;;;14.37;85.90;99605.41;5050791;28;20210;-67
2022/11/04 08:39:07;;;;;;;1.43;1.43;;;;;;;14.52;85.53;99609.91;5050149;28;20215;-66
2022/11/04 08:41:36;;;;;;;3.43;3.13;;;;;;;14.62;85.25;99600.88;5050027;28;20590;-66
2022/11/04 08:44:04;;;;;;;0.80;0.80;;;;;;;14.69;85.86;99602.28;5051175;28;20252;-68
2022/11/04 08:46:35;;;;;;;0.70;0.70;;;;;;;14.75;86.12;99596.00;5051575;28;20708;-66
2022/11/04 08:49:02;;;;;;;0.77;0.77;;;;;;;14.86;85.53;99598.97;5050517;28;20200;-66
2022/11/04 08:51:30;;;;;;;0.70;0.70;;;;;;;14.98;84.12;99588.09;5050392;28;20198;-66
2022/11/04 08:53:57;;;;;;;0.70;0.70;;;;;;;15.05;83.09;99585.16;5046310;28;20200;-66
2022/11/04 08:56:26;;;;;;;0.87;0.87;;;;;;;15.06;83.03;99576.50;5049910;28;20557;-66
2022/11/04 08:58:54;;;;;;;0.50;0.50;;;;;;;15.12;83.45;99580.56;5049542;28;20204;-67
2022/11/04 09:01:22;;;;;;;0.43;0.43;;;;;;;15.08;83.37;99568.69;5050494;28;20573;-68
2022/11/04 09:03:50;;;;;;;0.70;0.70;;;;;;;14.95;83.71;99580.47;5049415;28;20220;-67
2022/11/04 09:06:20;;;;;;;0.40;0.40;;;;;;;14.99;84.12;99576.84;5048301;28;20218;-67
2022/11/04 09:08:47;;;;;;;0.97;0.97;;;;;;;14.88;83.48;99561.00;5049984;28;20232;-67
2022/11/04 09:11:15;;;;;;;0.50;0.50;;;;;;;15.02;84.56;99563.81;5050218;28;20206;-67
2022/11/04 09:13:43;;;;;;;0.57;0.57;;;;;;;15.12;83.98;99559.91;5043498;28;20213;-66
2022/11/04 09:16:12;;;;;;;0.70;0.70;;;;;;;15.27;84.58;99559.19;5048341;28;20202;-66
2022/11/04 09:18:39;;;;;;;0.60;0.60;;;;;;;15.40;84.33;99549.94;5048791;28;20218;-66
2022/11/04 09:21:09;;;;;;;0.67;0.67;;;;;;;15.53;84.93;99545.91;5049508;28;20206;-66
2022/11/04 09:23:36;;;;;;;0.60;0.60;;;;;;;15.57;84.16;99537.06;5048867;28;20217;-66
2022/11/04 09:26:08;;;;;;;0.50;0.50;;;;;;;15.56;85.91;99544.91;5049852;28;20217;-67
2022/11/04 09:28:35;;;;;;;0.50;0.50;;;;;;;15.71;85.84;99539.84;5051402;28;20209;-66
2022/11/04 09:31:06;;;;;;;0.70;0.70;;;;;;;15.76;85.67;99537.03;5049066;28;20213;-66
2022/11/04 09:33:33;;;;;;;0.70;0.70;;;;;;;15.86;85.26;99538.25;5048690;28;20282;-67
2022/11/04 09:36:00;;;;;;;1.00;1.00;;;;;;;16.00;84.85;99540.13;5048601;28;20209;-67
2022/11/04 09:38:28;;;;;;;0.50;0.50;;;;;;;16.10;83.14;99536.19;5049770;28;20204;-67
2022/11/04 09:40:55;;;;;;;0.70;0.70;;;;;;;16.16;82.72;99530.69;5045768;28;20212;-72
2022/11/04 09:43:36;;;;;;;0.70;0.70;;;;;;;16.06;82.98;99525.16;5050053;28;20694;-68
2022/11/04 09:46:04;;;;;;;0.70;0.70;;;;;;;16.16;82.16;99521.19;5046879;28;20201;-67
2022/11/04 09:48:37;;;;;;;0.63;0.63;;;;;;;16.31;82.23;99514.41;5050656;28;20247;-67
2022/11/04 09:51:07;;;;;;;0.83;0.83;;;;;;;16.36;81.13;99512.41;5049454;28;20223;-67
2022/11/04 09:53:40;;;;;;;0.50;0.50;;;;;;;16.45;80.72;99500.75;5047953;28;20204;-68
2022/11/04 09:56:15;;;;;;;0.90;0.90;;;;;;;16.45;79.97;99499.00;5052101;28;20224;-67
2022/11/04 09:58:42;;;;;;;0.50;0.50;;;;;;;16.24;81.38;99482.84;5049696;28;20226;-67
2022/11/04 10:01:21;;;;;;;0.70;0.70;;;;;;;16.40;81.20;99488.06;5049850;28;20208;-67
2022/11/04 10:04:06;;;;;;;1.53;1.53;;;;;;;16.47;79.75;99483.41;5049200;28;20220;-67
2022/11/04 10:06:51;;;;;;;0.70;0.70;;;;;;;16.40;80.41;99477.72;5047232;28;20208;-67
2022/11/04 10:09:37;;;;;;;0.60;0.60;;;;;;;16.42;80.53;99475.03;5045403;28;20200;-68
2022/11/04 10:12:14;;;;;;;0.57;0.57;;;;;;;16.35;81.27;99468.53;5051558;28;20612;-68
2022/11/04 10:14:55;;;;;;;0.40;0.40;;;;;;;16.36;80.73;99465.84;5053124;28;20231;-67
2022/11/04 10:17:42;;;;;;;0.53;0.53;;;;;;;16.46;80.66;99459.28;5052545;28;20220;-68
2022/11/04 10:20:23;;;;;;;0.40;0.40;;;;;;;16.41;80.21;99458.69;5051114;28;20443;-65
2022/11/04 10:22:58;;;;;;;1.17;1.03;;;;;;;16.62;79.61;99451.53;5054024;28;20549;-65
2022/11/04 10:25:34;;;;;;;0.50;0.50;;;;;;;16.75;79.49;99445.63;5052967;28;20228;-65
2022/11/04 10:28:02;;;;;;;0.43;0.43;;;;;;;16.91;78.48;99435.25;5050173;28;20200;-66
2022/11/04 10:30:30;;;;;;;1.07;0.97;;;;;;;16.99;77.48;99435.69;5048933;28;20193;-65
2022/11/04 10:33:04;;;;;;;0.80;0.80;;;;;;;17.11;77.22;99434.16;5051771;28;20205;-65
2022/11/04 10:35:37;;;;;;;0.90;0.90;;;;;;;17.26;76.93;99422.91;5052261;28;20569;-65
2022/11/04 10:38:19;;;;;;;0.50;0.50;;;;;;;17.33;75.79;99419.91;5050257;28;20201;-66
2022/11/04 10:40:50;;;;;;;1.70;0.87;;;;;;;17.33;76.89;99411.28;5051937;28;20251;-65
2022/11/04 10:43:23;;;;;;;0.93;0.93;;;;;;;17.38;75.60;99404.09;5053014;28;20207;-65
2022/11/04 10:46:05;;;;;;;1.17;1.07;;;;;;;17.26;75.62;99407.38;5053286;28;20217;-66
2022/11/04 10:48:40;;;;;;;1.13;1.13;;;;;;;17.26;76.72;99402.19;5053114;28;20592;-65
2022/11/04 10:51:07;;;;;;;0.60;0.60;;;;;;;17.31;75.82;99395.00;5052681;28;20250;-65
2022/11/04 10:53:35;;;;;;;0.50;0.50;;;;;;;17.40;75.43;99393.63;5050492;28;20665;-65
2022/11/04 10:56:08;;;;;;;0.80;0.80;;;;;;;17.44;74.87;99384.75;5052654;28;20667;-65
2022/11/04 10:58:42;;;;;;;1.13;0.53;;;;;;;17.54;75.41;99386.72;5052550;28;20204;-65
2022/11/04 11:01:27;;;;;;;0.50;0.50;;;;;;;17.52;75.85;99388.56;5052869;28;20266;-65
2022/11/04 11:03:54;;;;;;;0.70;0.70;;;;;;;17.49;75.50;99383.56;5052538;28;20676;-65
2022/11/04 11:06:27;;;;;;;0.50;0.50;;;;;;;17.53;75.42;99369.50;5052357;28;20581;-66
2022/11/04 11:08:56;;;;;;;0.43;0.43;;;;;;;17.53;75.46;99374.69;5052200;28;20216;-66
2022/11/04 11:11:40;;;;;;;1.27;1.27;;;;;;;17.44;75.24;99366.63;5052352;28;20668;-66
2022/11/04 11:14:17;;;;;;;0.50;0.50;;;;;;;17.46;75.45;99370.78;5052354;28;20762;-65
2022/11/04 11:16:45;;;;;;;0.93;0.70;;;;;;;17.63;75.26;99357.69;5052412;28;20266;-65
2022/11/04 11:19:17;;;;;;;0.80;0.80;;;;;;;17.74;74.43;99357.88;5052146;28;20251;-65
2022/11/04 11:21:47;;;;;;;0.50;0.50;;;;;;;17.77;74.14;99359.47;5052371;28;20212;-65
2022/11/04 11:24:18;;;;;;;0.63;0.63;;;;;;;17.72;73.43;99354.53;5052228;28;20231;-65
2022/11/04 11:26:48;;;;;;;0.60;0.60;;;;;;;17.70;73.80;99329.66;5052518;28;20201;-65
2022/11/04 11:29:24;;;;;;;1.23;1.23;;;;;;;17.79;74.07;99335.09;5051926;28;20292;-65
2022/11/04 11:31:52;;;;;;;0.53;0.53;;;;;;;17.81;74.44;99335.00;5052019;28;20625;-65
2022/11/04 11:34:25;;;;;;;1.03;1.03;;;;;;;17.69;74.73;99327.97;5051864;28;20200;-65
2022/11/04 11:36:53;;;;;;;0.80;0.80;;;;;;;17.64;74.99;99330.81;5051862;28;20200;-65
2022/11/04 11:39:23;;;;;;;0.73;0.73;;;;;;;17.71;74.88;99332.13;5052329;28;20205;-65
2022/11/04 11:41:56;;;;;;;0.97;0.97;;;;;;;17.79;75.64;99329.09;5051800;28;20204;-66
2022/11/04 11:44:30;;;;;;;0.43;0.43;;;;;;;17.80;75.41;99316.00;5051621;28;20255;-65
2022/11/04 11:47:00;;;;;;;0.60;0.60;;;;;;;17.90;74.22;99310.28;5051252;28;20696;-65
2022/11/04 11:49:30;;;;;;;0.40;0.40;;;;;;;18.01;74.09;99302.66;5051943;28;20581;-65
2022/11/04 11:52:17;;;;;;;1.00;1.00;;;;;;;18.11;73.58;99307.19;5051700;28;20211;-65
2022/11/04 11:54:48;;;;;;;1.07;1.07;;;;;;;18.12;74.12;99308.03;5049104;28;20201;-65
2022/11/04 11:57:32;;;;;;;0.50;0.50;;;;;;;18.20;73.15;99303.19;5051824;28;20581;-66
2022/11/04 12:00:05;;;;;;;1.00;1.00;;;;;;;18.17;72.72;99304.22;5051449;28;20201;-65
2022/11/04 12:02:40;;;;;;;0.40;0.40;;;;;;;18.10;73.03;99273.53;5048894;28;20283;-66
2022/11/04 12:05:10;;;;;;;0.60;0.60;;;;;;;18.21;74.86;99291.88;5050956;28;20223;-66
2022/11/04 12:07:48;;;;;;;0.50;0.50;;;;;;;18.22;74.65;99283.19;5051241;28;20201;-66
2022/11/04 12:10:26;;;;;;;0.70;0.70;;;;;;;18.25;74.62;99280.38;5050148;28;20204;-65
2022/11/04 12:13:06;;;;;;;0.70;0.70;;;;;;;18.23;74.29;99266.66;5051377;28;20258;-65
2022/11/04 12:15:47;;;;;;;0.90;0.90;;;;;;;18.33;73.87;99268.56;5048738;28;20217;-66